Pringle, SD (57773)

12:56 AM MST on February 10, 2016 (GMT -0700)
Hay Creek Road | | Change Station
CLOSE
Current Station
Personal Weather Station
Location: Custer, SD
Elevation: 5325 ft
Nearby Weather Stations

Elev 5325 ft 43.70 °N, 103.67 °W | Updated 10 seconds ago

Clear
Clear
41.5 °F
Feels Like 42 °F
N
0.0
Wind Variable Wind from NE
Gusts 0.0 mph

Today
High -- | Low -- °F
--% Chance of Precip.
Yesterday
High -- | Low -- °F
Precip. -- in
Pressure 29.99 in
Visibility 10.0 miles
Clouds Clear
Windchill 42 °F
Dew Point 25 °F
Humidity 51%
Rainfall 0.00 in
Snow Depth Not available.
7:00 AM 5:17 PM
Waxing Crescent, 4% visible
METAR KCUT 100753Z AUTO 29010G20KT 10SM CLR 05/M06 A3002 RMK AO2 SLP153 T00501056
Pressure 29.99 in
Visibility 10.0 miles
Clouds Clear
Windchill 42 °F
Dew Point 25 °F
Humidity 51%
Rainfall 0.00 in
Snow Depth Not available.
7:00 AM 5:17 PM
Waxing Crescent, 4% visible
METAR KCUT 100753Z AUTO 29010G20KT 10SM CLR 05/M06 A3002 RMK AO2 SLP153 T00501056

10-Day Weather Forecast

Almanac

Astronomy

Feb. 10, 2016 Rise Set
Actual Time
Civil Twilight
Nautical Twilight
Astronomical Twilight
Moon
Length of Visible Light
Length of Day
Tomorrow will be .
, % of the Moon is Illuminated

Today's Extremes

State Highs State Lows

Community

WunderPhotos

Upload Photos

1,891,826 photos uploaded!

WunderBlog® & News

Nearby

Air Quality

  Air Quality AQ Index Pollutant
Not available.

Snow Depth

Station Depth Elevation

Earthquake Activity

City Distance Mag. Time & Date
Minimum magnitude displayed is 2.5.

Coastal Water Temperatures

Place Temperature

Stations

Nearby Weather Stations

Station Location Temp. Windchill Dew Point Humidity Wind Precip. Elev Updated Type
                   

Watches & Warnings

There are currently no watches in effect.